createdAt,value
2018-12-27T03:24:54.969Z,0.80
2018-12-27T03:27:25.329Z,0.80
2018-12-27T03:29:55.688Z,0.80
2018-12-27T03:32:26.283Z,0.80
2018-12-27T03:34:59.687Z,0.80
2018-12-27T03:37:30.051Z,0.70
2018-12-27T03:40:00.651Z,0.70
2018-12-27T03:42:31.271Z,0.70
2018-12-27T03:45:01.627Z,0.70
2018-12-27T03:47:31.973Z,0.70
2018-12-27T03:50:02.555Z,0.70
2018-12-27T03:52:32.920Z,0.60
2018-12-27T03:55:03.270Z,0.60
2018-12-27T03:57:33.892Z,0.60
2018-12-27T04:00:04.477Z,0.60
2018-12-27T04:02:34.846Z,0.60
2018-12-27T04:05:05.439Z,0.60
2018-12-27T04:07:36.049Z,0.60
2018-12-27T04:10:06.644Z,0.50
2018-12-27T04:12:36.989Z,0.50
2018-12-27T04:15:06.188Z,0.50
2018-12-27T04:17:36.615Z,0.50
2018-12-27T04:20:06.822Z,0.40
2018-12-27T04:22:37.007Z,0.40
2018-12-27T04:25:07.289Z,0.40
2018-12-27T04:27:37.487Z,0.40
2018-12-27T04:30:07.915Z,0.30
2018-12-27T04:32:39.943Z,0.30
2018-12-27T04:35:10.278Z,0.30
2018-12-27T04:37:40.470Z,0.30
2018-12-27T04:40:10.678Z,0.30
2018-12-27T04:42:41.198Z,0.30
2018-12-27T04:45:11.676Z,0.30
2018-12-27T04:47:41.871Z,0.20
2018-12-27T04:50:12.075Z,0.20
2018-12-27T04:52:42.265Z,0.20
2018-12-27T04:55:12.686Z,0.20
2018-12-27T04:57:42.902Z,0.20
2018-12-27T05:00:13.327Z,0.20
2018-12-27T05:02:43.530Z,0.10
2018-12-27T05:05:13.722Z,0.20
2018-12-27T05:07:43.935Z,0.10
2018-12-27T05:10:14.154Z,0.10
2018-12-27T05:12:44.596Z,0.10
2018-12-27T05:15:14.828Z,0.10
2018-12-27T05:17:45.260Z,0.00
2018-12-27T05:20:15.459Z,0.00
2018-12-27T05:22:45.892Z,0.00
2018-12-27T05:25:16.334Z,0.00
2018-12-27T05:27:46.530Z,0.00
2018-12-27T05:30:16.752Z,0.00
2018-12-27T05:32:47.170Z,0.00
2018-12-27T05:35:17.378Z,0.00
2018-12-27T05:37:47.557Z,0.00
2018-12-27T05:40:19.307Z,0.00
2018-12-27T05:42:49.578Z,0.00
2018-12-27T05:45:19.782Z,0.00
2018-12-27T05:47:49.978Z,-0.10
2018-12-27T05:50:20.194Z,-0.10
2018-12-27T05:52:50.635Z,-0.10
2018-12-27T05:55:20.842Z,-0.10
2018-12-27T05:57:51.294Z,-0.10
2018-12-27T06:00:21.503Z,-0.10
2018-12-27T06:02:51.952Z,-0.10
2018-12-27T06:05:22.155Z,-0.10
2018-12-27T06:07:52.600Z,-0.10
2018-12-27T06:10:22.798Z,-0.10
2018-12-27T06:12:53.018Z,-0.20
2018-12-27T06:15:23.210Z,-0.10
2018-12-27T06:17:53.431Z,-0.10
2018-12-27T06:20:23.882Z,-0.20
2018-12-27T06:22:54.083Z,-0.20
2018-12-27T06:25:24.535Z,-0.20
2018-12-27T06:27:54.731Z,-0.20
2018-12-27T06:30:24.942Z,-0.20
2018-12-27T06:32:55.134Z,-0.20
2018-12-27T06:35:25.346Z,-0.20
2018-12-27T06:37:55.778Z,-0.20
2018-12-27T06:40:26.231Z,-0.20
2018-12-27T06:42:56.431Z,-0.20
2018-12-27T06:45:26.629Z,-0.20
2018-12-27T06:47:56.841Z,-0.20
2018-12-27T06:50:27.032Z,-0.20
2018-12-27T06:52:57.247Z,-0.20
2018-12-27T06:55:27.674Z,-0.20
2018-12-27T06:57:58.110Z,-0.20
2018-12-27T07:00:28.301Z,-0.20
2018-12-27T07:02:58.515Z,-0.20
2018-12-27T07:05:28.717Z,-0.20
2018-12-27T07:07:59.178Z,-0.20
2018-12-27T07:10:29.379Z,-0.20
2018-12-27T07:12:59.587Z,-0.20
2018-12-27T07:15:29.773Z,-0.20
2018-12-27T07:17:59.990Z,-0.20
2018-12-27T07:20:30.422Z,-0.30
2018-12-27T07:23:00.621Z,-0.30
2018-12-27T07:25:30.834Z,-0.30
2018-12-27T07:28:01.278Z,-0.20
2018-12-27T07:30:31.482Z,-0.20
2018-12-27T07:33:01.935Z,-0.20
2018-12-27T07:35:32.148Z,-0.30
2018-12-27T07:38:02.597Z,-0.20
2018-12-27T07:40:32.796Z,-0.20
2018-12-27T07:43:02.991Z,-0.30
2018-12-27T07:45:33.198Z,-0.30
2018-12-27T07:48:03.403Z,-0.20
2018-12-27T07:50:33.611Z,-0.20
2018-12-27T07:53:04.055Z,-0.20
2018-12-27T07:55:34.500Z,-0.20
2018-12-27T07:58:04.690Z,-0.20
2018-12-27T08:00:34.904Z,-0.20
2018-12-27T08:03:05.097Z,-0.20
2018-12-27T08:05:35.333Z,-0.20
2018-12-27T08:08:05.534Z,-0.20
2018-12-27T08:10:36.062Z,-0.20
2018-12-27T08:13:06.255Z,-0.10
2018-12-27T08:15:36.711Z,-0.10
2018-12-27T08:18:07.163Z,-0.10
2018-12-27T08:20:37.610Z,-0.10
2018-12-27T08:23:08.056Z,-0.10
2018-12-27T08:25:38.484Z,-0.10
2018-12-27T08:28:08.694Z,-0.10
2018-12-27T08:30:39.135Z,0.00
2018-12-27T08:33:09.340Z,0.00
2018-12-27T08:35:39.546Z,0.00
2018-12-27T08:38:09.987Z,0.10
2018-12-27T08:40:40.182Z,0.10
2018-12-27T08:43:10.396Z,0.20
2018-12-27T08:45:40.825Z,0.20
2018-12-27T08:48:11.263Z,0.20
2018-12-27T08:50:41.458Z,0.20
2018-12-27T08:53:11.715Z,0.20
2018-12-27T08:55:41.998Z,0.30
2018-12-27T08:58:12.214Z,0.30
2018-12-27T09:00:42.423Z,0.40
2018-12-27T09:03:12.617Z,0.50
2018-12-27T09:05:42.838Z,0.50
2018-12-27T09:08:13.091Z,0.50
2018-12-27T09:10:43.303Z,0.60
2018-12-27T09:13:13.742Z,0.70
2018-12-27T09:15:43.954Z,0.70
2018-12-27T09:18:14.155Z,0.70
2018-12-27T09:20:44.582Z,0.80
2018-12-27T09:23:15.110Z,0.90
2018-12-27T09:25:45.698Z,0.90
2018-12-27T09:28:16.034Z,1.00
2018-12-27T09:30:46.235Z,1.00
2018-12-27T09:33:16.439Z,1.00
2018-12-27T09:35:46.647Z,1.10
2018-12-27T09:38:17.090Z,1.10
2018-12-27T09:40:47.299Z,1.20
2018-12-27T09:43:17.527Z,1.20
2018-12-27T09:45:47.789Z,1.20
2018-12-27T09:48:17.998Z,1.30
2018-12-27T09:50:48.207Z,1.30
2018-12-27T09:53:18.412Z,1.30
2018-12-27T09:55:48.636Z,1.40
2018-12-27T09:58:20.385Z,1.40
2018-12-27T10:00:50.823Z,1.50
2018-12-27T10:03:21.270Z,1.50
2018-12-27T10:05:51.702Z,1.60
2018-12-27T10:08:21.901Z,1.60
2018-12-27T10:10:52.106Z,1.70
2018-12-27T10:13:22.555Z,1.80
2018-12-27T10:15:52.751Z,1.80
2018-12-27T10:18:23.189Z,1.90
2018-12-27T10:20:53.626Z,1.90
2018-12-27T10:23:23.831Z,2.00
2018-12-27T10:25:54.039Z,2.10
2018-12-27T10:28:24.244Z,2.10
2018-12-27T10:30:59.725Z,2.20
2018-12-27T10:33:26.341Z,2.30
2018-12-27T10:35:56.538Z,2.30
2018-12-27T10:38:26.730Z,2.40
2018-12-27T10:40:56.938Z,2.40
2018-12-27T10:43:27.138Z,2.50
2018-12-27T10:45:57.590Z,2.50
2018-12-27T10:48:27.770Z,2.60
2018-12-27T10:50:58.211Z,2.60
2018-12-27T10:53:28.406Z,2.70
2018-12-27T10:55:58.613Z,2.80
2018-12-27T10:58:28.806Z,2.90
2018-12-27T11:00:59.027Z,3.00
2018-12-27T11:03:30.746Z,3.10
2018-12-27T11:06:01.125Z,3.20
2018-12-27T11:08:31.451Z,3.30
2018-12-27T11:11:01.620Z,3.30
2018-12-27T11:13:32.055Z,3.40
2018-12-27T11:16:02.241Z,3.40
2018-12-27T11:18:32.635Z,3.50
2018-12-27T11:21:02.821Z,3.60
2018-12-27T11:23:34.707Z,3.70
2018-12-27T11:26:04.902Z,3.80
2018-12-27T11:28:35.324Z,3.80
2018-12-27T11:31:05.514Z,3.90
2018-12-27T11:33:35.718Z,4.00
2018-12-27T11:36:06.146Z,4.10
2018-12-27T11:38:36.584Z,4.20
2018-12-27T11:41:06.767Z,4.30
2018-12-27T11:43:36.974Z,4.30
2018-12-27T11:46:07.393Z,4.30
2018-12-27T11:48:37.620Z,4.40
2018-12-27T11:51:08.800Z,4.50
2018-12-27T11:53:39.010Z,4.50
2018-12-27T11:56:09.217Z,4.50
2018-12-27T11:58:39.423Z,4.50
2018-12-27T12:01:09.638Z,4.50
2018-12-27T12:03:39.834Z,4.60
2018-12-27T12:06:10.060Z,4.60
2018-12-27T12:08:40.500Z,4.60
2018-12-27T12:11:10.722Z,4.70
2018-12-27T12:13:41.167Z,4.70
2018-12-27T12:16:11.619Z,4.70
2018-12-27T12:18:41.801Z,4.70
2018-12-27T12:21:12.024Z,4.80
2018-12-27T12:23:42.210Z,4.80
2018-12-27T12:26:12.667Z,4.90
2018-12-27T12:28:42.854Z,4.90
2018-12-27T12:31:13.084Z,5.00
2018-12-27T12:33:43.275Z,5.00
2018-12-27T12:36:13.500Z,5.00
2018-12-27T12:38:44.066Z,5.10
2018-12-27T12:41:14.326Z,5.10
2018-12-27T12:43:44.561Z,5.10
2018-12-27T12:46:15.030Z,5.20
2018-12-27T12:48:45.238Z,5.20
2018-12-27T12:51:15.691Z,5.20
2018-12-27T12:53:46.114Z,5.30
2018-12-27T12:56:16.326Z,5.30
2018-12-27T12:58:46.513Z,5.30
2018-12-27T13:01:16.743Z,5.40
2018-12-27T13:03:46.942Z,5.40
2018-12-27T13:06:18.088Z,5.40
2018-12-27T13:08:49.248Z,5.40
2018-12-27T13:11:19.748Z,5.50
2018-12-27T13:13:50.199Z,5.50
2018-12-27T13:16:20.398Z,5.50
2018-12-27T13:18:50.852Z,5.50
2018-12-27T13:21:21.055Z,5.50
2018-12-27T13:23:51.259Z,5.50
2018-12-27T13:26:21.711Z,5.50
2018-12-27T13:28:52.150Z,5.60
2018-12-27T13:31:22.340Z,5.60
2018-12-27T13:33:52.790Z,5.60
2018-12-27T13:36:25.539Z,5.60
2018-12-27T13:38:55.359Z,5.60
2018-12-27T13:41:25.787Z,5.60
2018-12-27T13:43:56.240Z,5.60
2018-12-27T13:46:26.507Z,5.60
2018-12-27T13:48:56.745Z,5.60
2018-12-27T13:51:27.161Z,5.60
2018-12-27T13:53:57.606Z,5.60
2018-12-27T13:56:27.813Z,5.60
2018-12-27T13:58:58.010Z,5.60
2018-12-27T14:01:28.461Z,5.60
2018-12-27T14:03:58.715Z,5.60
2018-12-27T14:06:32.658Z,5.70
2018-12-27T14:09:00.833Z,5.70
2018-12-27T14:11:31.057Z,5.70
2018-12-27T14:14:01.251Z,5.70
2018-12-27T14:16:31.462Z,5.70
2018-12-27T14:19:01.904Z,5.60
2018-12-27T14:21:32.119Z,5.60
2018-12-27T14:24:02.295Z,5.60
2018-12-27T14:26:32.749Z,5.60
2018-12-27T14:29:03.201Z,5.50
2018-12-27T14:31:33.420Z,5.50
2018-12-27T14:34:03.855Z,5.50
2018-12-27T14:36:39.716Z,5.40
2018-12-27T14:39:06.903Z,5.40
2018-12-27T14:41:37.126Z,5.40
2018-12-27T14:44:07.556Z,5.30
2018-12-27T14:46:37.766Z,5.30
2018-12-27T14:49:07.949Z,5.20
2018-12-27T14:51:38.180Z,5.20
2018-12-27T14:54:08.362Z,5.20
2018-12-27T14:56:38.585Z,5.20
2018-12-27T14:59:08.824Z,5.30
2018-12-27T15:01:39.071Z,5.40
2018-12-27T15:04:09.265Z,5.30
2018-12-27T15:06:46.890Z,5.30
2018-12-27T15:09:11.629Z,5.20
2018-12-27T15:11:41.854Z,5.10
2018-12-27T15:14:12.047Z,5.00
2018-12-27T15:16:42.276Z,5.00
2018-12-27T15:19:12.491Z,4.90
2018-12-27T15:21:42.678Z,4.80
2018-12-27T15:24:12.907Z,4.80
2018-12-27T15:26:43.090Z,4.70
2018-12-27T15:29:13.551Z,4.60
2018-12-27T15:31:43.746Z,4.60
2018-12-27T15:34:13.966Z,4.50
2018-12-27T15:36:44.170Z,4.40
2018-12-27T15:39:14.609Z,4.40
2018-12-27T15:41:44.789Z,4.30
2018-12-27T15:44:15.014Z,4.30
2018-12-27T15:46:45.447Z,4.30
2018-12-27T15:49:15.720Z,4.20
2018-12-27T15:51:45.938Z,4.20
2018-12-27T15:54:16.171Z,4.10
2018-12-27T15:56:46.734Z,4.10
2018-12-27T15:59:16.950Z,4.00
2018-12-27T16:01:47.386Z,4.00
2018-12-27T16:04:17.574Z,4.00
2018-12-27T16:06:48.026Z,4.00
2018-12-27T16:09:18.197Z,4.00
2018-12-27T16:11:48.648Z,3.90
2018-12-27T16:14:19.066Z,4.00
2018-12-27T16:16:49.609Z,3.90
2018-12-27T16:19:20.036Z,3.90
2018-12-27T16:21:50.483Z,3.90
2018-12-27T16:24:20.952Z,3.90
2018-12-27T16:26:51.151Z,3.90
2018-12-27T16:29:21.640Z,3.90
2018-12-27T16:31:51.842Z,3.80
2018-12-27T16:34:22.054Z,3.80
2018-12-27T16:36:52.277Z,3.80
2018-12-27T16:39:22.870Z,3.70
2018-12-27T16:41:53.386Z,3.70
2018-12-27T16:44:23.834Z,3.70
2018-12-27T16:46:54.030Z,3.60
2018-12-27T16:49:24.471Z,3.60
2018-12-27T16:51:54.671Z,3.60
2018-12-27T16:54:24.954Z,3.60
2018-12-27T16:56:55.368Z,3.50
2018-12-27T16:59:25.590Z,3.50
2018-12-27T17:01:55.803Z,3.50
2018-12-27T17:04:26.237Z,3.50
2018-12-27T17:06:56.462Z,3.40
2018-12-27T17:09:26.894Z,3.40
2018-12-27T17:11:57.108Z,3.40
2018-12-27T17:14:27.354Z,3.30
2018-12-27T17:16:57.583Z,3.30
2018-12-27T17:19:27.783Z,3.20
2018-12-27T17:21:58.002Z,3.20
2018-12-27T17:24:28.213Z,3.20
2018-12-27T17:26:58.424Z,3.10
2018-12-27T17:29:28.641Z,3.10
2018-12-27T17:31:58.839Z,3.10
2018-12-27T17:34:29.063Z,3.00
2018-12-27T17:36:59.510Z,3.00
2018-12-27T17:39:29.738Z,3.00
2018-12-27T17:41:59.963Z,3.00
2018-12-27T17:44:30.154Z,3.00
2018-12-27T17:47:00.378Z,2.90
2018-12-27T17:49:30.573Z,2.90
2018-12-27T17:52:00.794Z,2.90
2018-12-27T17:54:31.210Z,2.90
2018-12-27T17:57:01.653Z,2.90
2018-12-27T17:59:31.838Z,2.80
2018-12-27T18:02:02.055Z,2.80
2018-12-27T18:04:32.254Z,2.80
2018-12-27T18:07:02.487Z,2.80
2018-12-27T18:09:32.925Z,2.80
2018-12-27T18:12:03.158Z,2.80
2018-12-27T18:14:33.590Z,2.80
2018-12-27T18:17:03.817Z,2.80
2018-12-27T18:19:34.030Z,2.80
2018-12-27T18:22:04.213Z,2.80
2018-12-27T18:24:42.156Z,2.80
2018-12-27T18:27:08.496Z,2.80
2018-12-27T18:29:38.730Z,2.80
2018-12-27T18:32:08.934Z,2.80
2018-12-27T18:34:39.171Z,2.80
2018-12-27T18:37:09.377Z,2.80
2018-12-27T18:39:39.574Z,2.70
2018-12-27T18:42:09.786Z,2.70
2018-12-27T18:44:40.215Z,2.70
2018-12-27T18:47:10.439Z,2.70
2018-12-27T18:49:40.652Z,2.70
2018-12-27T18:52:10.854Z,2.70
2018-12-27T18:54:41.077Z,2.70
2018-12-27T18:57:11.519Z,2.70
2018-12-27T18:59:41.746Z,2.70
2018-12-27T19:02:12.283Z,2.70
2018-12-27T19:04:42.498Z,2.80
2018-12-27T19:07:12.931Z,2.80
2018-12-27T19:09:43.388Z,2.80
2018-12-27T19:12:49.402Z,2.80
2018-12-27T19:15:19.667Z,2.80
2018-12-27T19:17:51.230Z,2.80
2018-12-27T19:20:21.414Z,2.80
2018-12-27T19:22:54.723Z,2.80
2018-12-27T19:25:24.918Z,2.80
2018-12-27T19:27:55.146Z,2.80
2018-12-27T19:30:25.369Z,2.90
2018-12-27T19:32:55.557Z,2.90
2018-12-27T19:35:26.755Z,2.90
2018-12-27T19:37:57.200Z,2.90
2018-12-27T19:40:27.650Z,2.90
2018-12-27T19:42:57.834Z,2.80
2018-12-27T19:45:28.045Z,2.80
2018-12-27T19:47:58.242Z,2.80
2018-12-27T19:50:28.686Z,2.80
2018-12-27T19:52:58.991Z,2.80
2018-12-27T19:55:29.181Z,2.80
2018-12-27T19:57:59.405Z,2.80
2018-12-27T20:00:29.639Z,2.70
2018-12-27T20:02:59.838Z,2.70
2018-12-27T20:05:30.075Z,2.80
2018-12-27T20:08:00.519Z,2.70
2018-12-27T20:10:30.755Z,2.70
2018-12-27T20:13:00.949Z,2.70
2018-12-27T20:15:31.165Z,2.70
2018-12-27T20:18:01.383Z,2.70
2018-12-27T20:20:31.852Z,2.70
2018-12-27T20:23:02.069Z,2.70
2018-12-27T20:25:32.286Z,2.70
2018-12-27T20:28:02.496Z,2.70
2018-12-27T20:30:32.940Z,2.70
2018-12-27T20:33:03.411Z,2.70
2018-12-27T20:35:33.610Z,2.70
2018-12-27T20:38:06.787Z,2.70
2018-12-27T20:40:35.953Z,2.70
2018-12-27T20:43:06.405Z,2.70
2018-12-27T20:45:36.593Z,2.70
2018-12-27T20:48:07.068Z,2.70
2018-12-27T20:50:37.333Z,2.70
2018-12-27T20:53:07.794Z,2.70
2018-12-27T20:55:38.266Z,2.70
2018-12-27T20:58:08.478Z,2.70
2018-12-27T21:00:38.698Z,2.70
2018-12-27T21:03:08.909Z,2.70
2018-12-27T21:05:39.209Z,2.70
2018-12-27T21:08:14.049Z,2.70
2018-12-27T21:10:41.651Z,2.70
2018-12-27T21:13:11.844Z,2.70
2018-12-27T21:15:42.289Z,2.70
2018-12-27T21:18:12.486Z,2.70
2018-12-27T21:20:42.714Z,2.70
2018-12-27T21:23:13.176Z,2.70
2018-12-27T21:25:43.635Z,2.70
2018-12-27T21:28:13.842Z,2.80
2018-12-27T21:30:44.307Z,2.80
2018-12-27T21:33:14.522Z,2.80
2018-12-27T21:35:44.750Z,2.80
2018-12-27T21:38:21.352Z,2.80
2018-12-27T21:40:47.331Z,2.80
2018-12-27T21:43:17.562Z,2.80
2018-12-27T21:45:47.759Z,2.80
2018-12-27T21:48:17.975Z,2.80
2018-12-27T21:50:48.170Z,2.80
2018-12-27T21:53:18.388Z,2.70
2018-12-27T21:55:48.844Z,2.80
2018-12-27T21:58:19.282Z,2.80
2018-12-27T22:00:49.710Z,2.80
2018-12-27T22:03:20.163Z,2.90
2018-12-27T22:05:50.612Z,2.90
2018-12-27T22:08:20.806Z,2.90
2018-12-27T22:10:51.035Z,2.90
2018-12-27T22:13:21.240Z,2.90
2018-12-27T22:15:51.470Z,3.00
2018-12-27T22:18:21.805Z,3.00
2018-12-27T22:20:52.014Z,2.90
2018-12-27T22:23:22.222Z,3.00
2018-12-27T22:25:52.679Z,2.90
2018-12-27T22:28:23.094Z,2.90
2018-12-27T22:30:53.314Z,2.90
2018-12-27T22:33:23.506Z,2.90
2018-12-27T22:35:53.730Z,2.90
2018-12-27T22:38:24.194Z,2.90
2018-12-27T22:40:54.618Z,2.90
2018-12-27T22:43:24.847Z,2.90
2018-12-27T22:45:55.034Z,2.90
2018-12-27T22:48:25.247Z,2.90
2018-12-27T22:50:56.696Z,2.90
2018-12-27T22:53:27.105Z,2.90
2018-12-27T22:55:57.419Z,2.80
2018-12-27T22:58:27.843Z,2.80
2018-12-27T23:00:58.211Z,2.80
2018-12-27T23:03:28.393Z,2.80
2018-12-27T23:05:58.627Z,2.80
2018-12-27T23:08:28.837Z,2.80
2018-12-27T23:10:59.054Z,2.70
2018-12-27T23:13:29.511Z,2.70
2018-12-27T23:15:59.855Z,2.70
2018-12-27T23:18:30.058Z,2.70
2018-12-27T23:21:00.510Z,2.60
2018-12-27T23:23:30.746Z,2.60
2018-12-27T23:26:00.948Z,2.60
2018-12-27T23:28:31.187Z,2.60
2018-12-27T23:31:01.380Z,2.60
2018-12-27T23:33:31.622Z,2.60
2018-12-27T23:36:01.899Z,2.60
2018-12-27T23:38:32.127Z,2.50
2018-12-27T23:41:02.319Z,2.50
2018-12-27T23:43:32.793Z,2.50
2018-12-27T23:46:02.978Z,2.50
2018-12-27T23:48:33.221Z,2.50
2018-12-27T23:51:03.638Z,2.50
2018-12-27T23:53:33.859Z,2.50
2018-12-27T23:56:04.080Z,2.50
2018-12-27T23:58:34.550Z,2.40
